createdAt,value
2022-08-20T00:01:16.602Z,79.64
2022-08-20T00:03:44.687Z,80.59
2022-08-20T00:06:20.771Z,80.50
2022-08-20T00:08:48.533Z,80.93
2022-08-20T00:11:26.648Z,80.43
2022-08-20T00:13:59.659Z,79.01
2022-08-20T00:16:32.397Z,80.10
2022-08-20T00:19:07.457Z,77.76
2022-08-20T00:21:36.554Z,78.75
2022-08-20T00:24:04.903Z,78.27
2022-08-20T00:26:32.430Z,76.36
2022-08-20T00:28:59.648Z,76.33
2022-08-20T00:31:28.738Z,76.44
2022-08-20T00:33:55.929Z,76.08
2022-08-20T00:36:32.268Z,75.07
2022-08-20T00:39:01.237Z,75.18
2022-08-20T00:41:29.451Z,75.43
2022-08-20T00:44:22.557Z,75.28
2022-08-20T00:46:51.483Z,77.02
2022-08-20T00:49:27.860Z,78.03
2022-08-20T00:52:05.958Z,78.04
2022-08-20T00:54:49.242Z,77.19
2022-08-20T00:57:58.926Z,77.78
2022-08-20T01:00:26.013Z,78.59
2022-08-20T01:02:54.043Z,76.06
2022-08-20T01:05:23.552Z,76.42
2022-08-20T01:07:56.771Z,76.39
2022-08-20T01:10:34.941Z,76.32
2022-08-20T01:13:11.440Z,75.95
2022-08-20T01:15:43.436Z,75.87
2022-08-20T01:18:16.481Z,76.53
2022-08-20T01:20:58.986Z,76.18
2022-08-20T01:23:53.247Z,76.25
2022-08-20T01:26:25.920Z,76.28
2022-08-20T01:29:04.266Z,78.13
2022-08-20T01:31:36.991Z,78.64
2022-08-20T01:34:08.265Z,79.39
2022-08-20T01:36:51.841Z,77.52
2022-08-20T01:39:32.974Z,76.94
2022-08-20T01:42:22.489Z,76.58
2022-08-20T01:44:50.342Z,76.27
2022-08-20T01:47:28.129Z,76.50
2022-08-20T01:50:08.010Z,76.60
2022-08-20T01:53:12.069Z,76.30
2022-08-20T01:55:39.913Z,75.99
2022-08-20T01:58:06.952Z,75.33
2022-08-20T02:00:35.645Z,75.22
2022-08-20T02:03:04.109Z,75.75
2022-08-20T02:05:33.230Z,76.89
2022-08-20T02:08:02.015Z,76.69
2022-08-20T02:10:31.928Z,77.98
2022-08-20T02:13:00.702Z,78.60
2022-08-20T02:15:35.027Z,77.60
2022-08-20T02:18:14.984Z,78.97
2022-08-20T02:20:43.479Z,78.78
2022-08-20T02:23:12.364Z,78.01
2022-08-20T02:25:42.074Z,77.02
2022-08-20T02:28:12.655Z,76.10
2022-08-20T02:30:45.904Z,77.25
2022-08-20T02:33:17.326Z,77.41
2022-08-20T02:35:49.131Z,76.16
2022-08-20T02:38:17.277Z,77.27
2022-08-20T02:40:46.670Z,77.09
2022-08-20T02:43:14.474Z,77.38
2022-08-20T02:45:44.230Z,77.39
2022-08-20T02:48:21.439Z,77.31
2022-08-20T02:51:01.419Z,77.11
2022-08-20T02:53:33.242Z,77.56
2022-08-20T02:56:01.032Z,78.04
2022-08-20T02:58:28.569Z,77.50
2022-08-20T03:00:57.089Z,78.21
2022-08-20T03:03:25.455Z,78.43
2022-08-20T03:05:57.097Z,78.76
2022-08-20T03:08:25.847Z,78.84
2022-08-20T03:10:53.449Z,78.79
2022-08-20T03:13:22.185Z,77.67
2022-08-20T03:15:58.651Z,77.64
2022-08-20T03:18:33.129Z,76.77
2022-08-20T03:21:00.442Z,76.56
2022-08-20T03:23:27.563Z,78.07
2022-08-20T03:25:54.667Z,78.30
2022-08-20T03:28:21.785Z,77.52
2022-08-20T03:30:50.521Z,78.50
2022-08-20T03:33:20.154Z,78.16
2022-08-20T03:35:48.135Z,79.03
2022-08-20T03:38:32.236Z,79.04
2022-08-20T03:41:02.221Z,78.99
2022-08-20T03:43:29.941Z,78.45
2022-08-20T03:45:57.296Z,78.55
2022-08-20T03:48:25.298Z,78.81
2022-08-20T03:50:53.173Z,78.18
2022-08-20T03:53:20.158Z,78.43
2022-08-20T03:55:54.357Z,78.66
2022-08-20T03:58:33.301Z,78.41
2022-08-20T04:01:07.273Z,78.07
2022-08-20T04:03:36.259Z,78.53
2022-08-20T04:06:04.379Z,78.71
2022-08-20T04:08:31.785Z,78.74
2022-08-20T04:10:59.772Z,78.92
2022-08-20T04:13:30.676Z,78.00
2022-08-20T04:16:01.112Z,78.53
2022-08-20T04:18:28.314Z,78.24
2022-08-20T04:20:55.638Z,77.28
2022-08-20T04:23:23.131Z,77.91
2022-08-20T04:25:50.595Z,78.26
2022-08-20T04:28:27.080Z,77.29
2022-08-20T04:30:59.562Z,77.91
2022-08-20T04:33:33.995Z,78.16
2022-08-20T04:36:05.561Z,78.26
2022-08-20T04:38:50.169Z,78.13
2022-08-20T04:41:22.723Z,78.77
2022-08-20T04:43:54.053Z,78.99
2022-08-20T04:46:25.576Z,78.50
2022-08-20T04:48:53.839Z,78.36
2022-08-20T04:51:23.287Z,78.74
2022-08-20T04:53:54.457Z,78.42
2022-08-20T04:56:24.515Z,78.62
2022-08-20T04:58:54.816Z,79.42
2022-08-20T05:01:24.030Z,79.98
2022-08-20T05:03:54.629Z,81.87
2022-08-20T05:06:26.104Z,83.23
2022-08-20T05:08:54.741Z,84.15
2022-08-20T05:11:34.620Z,83.51
2022-08-20T05:14:09.194Z,83.99
2022-08-20T05:16:39.320Z,85.54
2022-08-20T05:19:09.739Z,86.65
2022-08-20T05:21:37.870Z,86.10
2022-08-20T05:24:06.664Z,85.10
2022-08-20T05:26:34.051Z,84.97
2022-08-20T05:29:04.660Z,85.36
2022-08-20T05:31:33.580Z,85.30
2022-08-20T05:34:12.694Z,85.67
2022-08-20T05:36:48.279Z,84.46
2022-08-20T05:39:20.813Z,83.35
2022-08-20T05:41:49.917Z,84.65
2022-08-20T05:44:18.620Z,85.83
2022-08-20T05:46:48.173Z,85.81
2022-08-20T05:49:20.068Z,83.59
2022-08-20T05:51:48.862Z,83.20
2022-08-20T05:54:16.043Z,82.97
2022-08-20T05:56:43.452Z,83.42
2022-08-20T05:59:12.706Z,84.16
2022-08-20T06:01:41.265Z,83.59
2022-08-20T06:04:26.930Z,84.10
2022-08-20T06:07:07.078Z,85.43
2022-08-20T06:09:36.420Z,83.98
2022-08-20T06:12:07.758Z,84.28
2022-08-20T06:14:35.886Z,83.19
2022-08-20T06:17:10.822Z,82.59
2022-08-20T06:19:44.480Z,84.24
2022-08-20T06:22:19.087Z,86.53
2022-08-20T06:24:49.120Z,87.89
2022-08-20T06:27:17.473Z,88.04
2022-08-20T06:29:44.715Z,88.12
2022-08-20T06:32:12.339Z,87.96
2022-08-20T06:34:49.992Z,88.29
2022-08-20T06:37:27.430Z,87.79
2022-08-20T06:40:10.075Z,87.74
2022-08-20T06:42:45.727Z,87.62
2022-08-20T06:45:24.513Z,88.28
2022-08-20T06:47:58.312Z,88.19
2022-08-20T06:50:33.715Z,88.10
2022-08-20T06:53:00.961Z,88.26
2022-08-20T06:55:28.028Z,86.41
2022-08-20T06:58:06.050Z,86.65
2022-08-20T07:00:35.578Z,86.22
2022-08-20T07:03:04.322Z,86.58
2022-08-20T07:05:35.793Z,85.13
2022-08-20T07:08:04.343Z,84.77
2022-08-20T07:10:32.043Z,83.52
2022-08-20T07:13:00.549Z,82.70
2022-08-20T07:15:28.200Z,83.84
2022-08-20T07:18:01.358Z,85.30
2022-08-20T07:20:31.686Z,86.64
2022-08-20T07:22:59.586Z,86.86
2022-08-20T07:25:27.235Z,86.78
2022-08-20T07:28:02.302Z,88.47
2022-08-20T07:30:56.473Z,86.86
2022-08-20T07:33:26.509Z,87.70
2022-08-20T07:35:57.700Z,86.86
2022-08-20T07:38:27.168Z,86.56
2022-08-20T07:41:00.173Z,85.74
2022-08-20T07:43:28.302Z,85.24
2022-08-20T07:46:00.854Z,82.17
2022-08-20T07:48:32.450Z,80.57
2022-08-20T07:51:05.086Z,82.94
2022-08-20T07:53:35.993Z,80.79
2022-08-20T07:56:07.608Z,82.16
2022-08-20T07:58:38.885Z,80.64
2022-08-20T08:01:07.596Z,81.07
2022-08-20T08:03:41.108Z,77.93
2022-08-20T08:06:28.706Z,80.16
2022-08-20T08:09:11.849Z,82.27
2022-08-20T08:11:47.293Z,82.30
2022-08-20T08:14:17.211Z,80.18
2022-08-20T08:16:45.808Z,81.16
2022-08-20T08:19:17.238Z,79.39
2022-08-20T08:21:44.506Z,78.19
2022-08-20T08:24:15.486Z,80.14
2022-08-20T08:26:46.509Z,76.75
2022-08-20T08:29:13.667Z,77.74
2022-08-20T08:31:41.289Z,79.91
2022-08-20T08:34:09.115Z,76.87
2022-08-20T08:36:36.151Z,75.18
2022-08-20T08:39:03.163Z,74.60
2022-08-20T08:41:35.569Z,75.54
2022-08-20T08:44:23.690Z,75.79
2022-08-20T08:47:13.824Z,76.32
2022-08-20T08:49:40.899Z,77.11
2022-08-20T08:52:20.015Z,72.27
2022-08-20T08:54:52.839Z,69.39
2022-08-20T08:57:20.176Z,70.89
2022-08-20T09:00:03.525Z,72.71
2022-08-20T09:02:36.271Z,68.53
2022-08-20T09:05:16.102Z,72.74
2022-08-20T09:07:48.332Z,69.35
2022-08-20T09:10:17.675Z,72.03
2022-08-20T09:12:50.811Z,69.36
2022-08-20T09:15:21.242Z,74.15
2022-08-20T09:17:48.774Z,72.23
2022-08-20T09:20:15.939Z,67.88
2022-08-20T09:22:42.906Z,69.29
2022-08-20T09:25:10.337Z,68.23
2022-08-20T09:27:37.569Z,66.09
2022-08-20T09:30:09.808Z,65.26
2022-08-20T09:32:36.845Z,67.54
2022-08-20T09:35:09.259Z,66.17
2022-08-20T09:37:37.801Z,66.22
2022-08-20T09:40:08.886Z,65.88
2022-08-20T09:42:41.267Z,64.45
2022-08-20T09:45:11.410Z,63.30
2022-08-20T09:47:55.116Z,63.28
2022-08-20T09:50:31.809Z,63.80
2022-08-20T09:53:01.014Z,66.22
2022-08-20T09:55:45.510Z,63.84
2022-08-20T09:58:34.323Z,66.46
2022-08-20T10:01:17.828Z,64.52
2022-08-20T10:03:49.511Z,65.94
2022-08-20T10:06:20.436Z,64.37
2022-08-20T10:08:49.043Z,61.61
2022-08-20T10:11:17.976Z,63.82
2022-08-20T10:13:45.942Z,62.10
2022-08-20T10:16:13.260Z,66.26
2022-08-20T10:18:40.334Z,62.03
2022-08-20T10:21:11.832Z,59.85
2022-08-20T10:23:38.861Z,61.56
2022-08-20T10:26:09.116Z,60.99
2022-08-20T10:28:36.725Z,60.51
2022-08-20T10:31:07.418Z,60.71
2022-08-20T10:33:35.977Z,57.96
2022-08-20T10:36:12.387Z,58.92
2022-08-20T10:38:39.665Z,61.00
2022-08-20T10:41:06.713Z,59.72
2022-08-20T10:43:33.860Z,61.14
2022-08-20T10:46:01.282Z,59.60
2022-08-20T10:48:28.591Z,60.22
2022-08-20T10:50:55.709Z,60.98
2022-08-20T10:53:22.737Z,61.58
2022-08-20T10:55:49.824Z,59.48
2022-08-20T10:58:16.928Z,58.96
2022-08-20T11:00:45.758Z,59.17
2022-08-20T11:03:13.396Z,59.03
2022-08-20T11:05:40.497Z,57.62
2022-08-20T11:08:07.661Z,59.47
2022-08-20T11:10:36.758Z,58.34
2022-08-20T11:13:08.335Z,57.53
2022-08-20T11:15:42.519Z,58.07
2022-08-20T11:18:10.743Z,56.10
2022-08-20T11:20:37.804Z,57.88
2022-08-20T11:23:05.209Z,57.08
2022-08-20T11:25:32.473Z,55.35
2022-08-20T11:28:00.212Z,57.27
2022-08-20T11:30:33.134Z,56.56
2022-08-20T11:33:01.243Z,57.13
2022-08-20T11:35:43.487Z,55.92
2022-08-20T11:38:17.852Z,57.59
2022-08-20T11:40:46.832Z,58.91
2022-08-20T11:43:16.259Z,58.72
2022-08-20T11:45:52.577Z,58.95
2022-08-20T11:48:20.135Z,60.58
2022-08-20T11:50:48.784Z,68.01
2022-08-20T11:53:16.520Z,71.05
2022-08-20T11:55:44.043Z,74.11
2022-08-20T11:58:11.745Z,71.56
2022-08-20T12:00:39.417Z,71.89
2022-08-20T12:03:09.263Z,72.71
2022-08-20T12:05:38.761Z,75.67
2022-08-20T12:08:06.578Z,73.48
2022-08-20T12:10:34.379Z,72.40
2022-08-20T12:13:02.664Z,72.44
2022-08-20T12:15:33.403Z,72.81
2022-08-20T12:18:01.811Z,70.97
2022-08-20T12:20:28.812Z,69.66
2022-08-20T12:22:56.122Z,74.60
2022-08-20T12:25:23.388Z,71.11
2022-08-20T12:27:50.433Z,71.35
2022-08-20T12:30:22.867Z,70.00
2022-08-20T12:32:50.355Z,69.04
2022-08-20T12:35:18.769Z,68.65
2022-08-20T12:37:47.024Z,65.07
2022-08-20T12:40:31.727Z,65.19
2022-08-20T12:43:01.739Z,64.03
2022-08-20T12:45:29.883Z,61.39
2022-08-20T12:48:10.664Z,61.72
2022-08-20T12:50:40.677Z,62.03
2022-08-20T12:53:08.749Z,60.24
2022-08-20T12:55:36.024Z,60.72
2022-08-20T12:58:07.390Z,63.05
2022-08-20T13:00:44.280Z,59.38
2022-08-20T13:03:17.461Z,60.92
2022-08-20T13:05:44.466Z,58.09
2022-08-20T13:08:12.923Z,58.59
2022-08-20T13:10:45.993Z,57.11
2022-08-20T13:13:20.557Z,55.86
2022-08-20T13:15:50.758Z,56.04
2022-08-20T13:18:19.108Z,57.92
2022-08-20T13:20:46.656Z,56.50
2022-08-20T13:23:13.626Z,56.97
2022-08-20T13:25:40.841Z,55.17
2022-08-20T13:28:08.086Z,55.13
2022-08-20T13:30:38.715Z,56.06
2022-08-20T13:33:06.074Z,57.55
2022-08-20T13:35:33.270Z,54.65
2022-08-20T13:38:00.348Z,54.58
2022-08-20T13:40:27.949Z,54.98
2022-08-20T13:42:55.084Z,56.08
2022-08-20T13:45:22.514Z,54.94
2022-08-20T13:47:54.385Z,55.92
2022-08-20T13:50:24.406Z,52.81
2022-08-20T13:52:51.599Z,53.27
2022-08-20T13:55:22.711Z,52.95
2022-08-20T13:57:51.570Z,54.87
2022-08-20T14:00:31.122Z,54.63
2022-08-20T14:03:04.256Z,51.47
2022-08-20T14:05:33.326Z,50.24
2022-08-20T14:08:13.882Z,51.64
2022-08-20T14:10:42.722Z,52.59
2022-08-20T14:13:14.616Z,51.61
2022-08-20T14:15:44.900Z,51.56
2022-08-20T14:18:14.735Z,51.31
2022-08-20T14:20:43.051Z,50.83
2022-08-20T14:23:13.253Z,50.53
2022-08-20T14:25:40.551Z,51.71
2022-08-20T14:28:19.145Z,55.50
2022-08-20T14:30:53.198Z,63.35
2022-08-20T14:33:22.154Z,64.84
2022-08-20T14:35:49.904Z,67.52
2022-08-20T14:38:18.015Z,71.27
2022-08-20T14:40:46.390Z,71.90
2022-08-20T14:43:13.636Z,73.57
2022-08-20T14:45:40.742Z,74.97
2022-08-20T14:48:09.428Z,74.22
2022-08-20T14:50:37.398Z,74.59
2022-08-20T14:53:05.272Z,76.55
2022-08-20T14:55:37.569Z,77.23
2022-08-20T14:58:10.575Z,77.39
2022-08-20T15:00:38.565Z,77.07
2022-08-20T15:03:05.955Z,77.13
2022-08-20T15:05:33.788Z,77.64
2022-08-20T15:08:00.898Z,78.12
2022-08-20T15:10:33.499Z,76.63
2022-08-20T15:13:02.661Z,78.74
2022-08-20T15:15:30.294Z,78.07
2022-08-20T15:18:02.534Z,76.76
2022-08-20T15:20:33.603Z,78.14
2022-08-20T15:23:01.450Z,73.87
2022-08-20T15:25:36.136Z,74.43
2022-08-20T15:28:05.933Z,76.22
2022-08-20T15:30:35.914Z,74.29
2022-08-20T15:33:03.326Z,74.32
2022-08-20T15:35:30.873Z,73.81
2022-08-20T15:37:59.431Z,70.98
2022-08-20T15:40:30.606Z,70.43
2022-08-20T15:42:59.962Z,71.85
2022-08-20T15:45:27.468Z,69.89
2022-08-20T15:48:11.902Z,69.59
2022-08-20T15:51:27.462Z,66.90
2022-08-20T15:54:13.735Z,67.76
2022-08-20T15:57:11.911Z,67.12
2022-08-20T16:00:21.841Z,67.26
2022-08-20T16:03:19.978Z,67.21
2022-08-20T16:06:17.317Z,66.36
2022-08-20T16:09:09.200Z,66.78
2022-08-20T16:12:10.397Z,68.44
2022-08-20T16:14:43.828Z,66.88
2022-08-20T16:17:17.799Z,67.59
2022-08-20T16:20:12.003Z,65.98
2022-08-20T16:22:44.931Z,64.08
2022-08-20T16:25:13.559Z,64.43
2022-08-20T16:27:49.415Z,65.13
2022-08-20T16:30:56.301Z,65.67
2022-08-20T16:33:28.649Z,64.01
2022-08-20T16:36:13.570Z,64.78
2022-08-20T16:38:44.037Z,63.10
2022-08-20T16:41:16.280Z,62.03
2022-08-20T16:44:02.534Z,62.43
2022-08-20T16:46:38.078Z,63.66
2022-08-20T16:49:13.929Z,63.92
2022-08-20T16:51:52.060Z,63.14
2022-08-20T16:54:28.245Z,63.29
2022-08-20T16:57:06.212Z,63.10
2022-08-20T16:59:33.982Z,64.12
2022-08-20T17:02:11.387Z,64.20
2022-08-20T17:04:59.556Z,62.15
2022-08-20T17:07:57.343Z,62.02
2022-08-20T17:10:40.165Z,62.00
2022-08-20T17:13:16.106Z,62.27
2022-08-20T17:15:44.793Z,61.53
2022-08-20T17:18:40.282Z,63.10
2022-08-20T17:21:23.485Z,61.78
2022-08-20T17:24:16.839Z,62.47
2022-08-20T17:26:56.834Z,62.54
2022-08-20T17:29:29.591Z,63.18
2022-08-20T17:32:28.777Z,63.64
2022-08-20T17:35:01.876Z,62.27
2022-08-20T17:37:41.940Z,62.45
2022-08-20T17:40:17.526Z,62.79
2022-08-20T17:43:02.253Z,63.76
2022-08-20T17:45:42.766Z,63.19
2022-08-20T17:48:24.287Z,64.31
2022-08-20T17:51:00.486Z,63.71
2022-08-20T17:53:48.660Z,63.42
2022-08-20T17:56:34.897Z,64.22
2022-08-20T17:59:59.900Z,63.67
2022-08-20T18:02:17.075Z,62.89
2022-08-20T18:04:46.152Z,62.89
2022-08-20T18:07:27.757Z,63.84
2022-08-20T18:10:18.405Z,64.46
2022-08-20T18:13:14.367Z,66.11
2022-08-20T18:15:58.656Z,66.23
2022-08-20T18:18:52.911Z,67.60
2022-08-20T18:21:45.284Z,65.88
2022-08-20T18:24:53.421Z,66.77
2022-08-20T18:27:25.471Z,67.63
2022-08-20T18:30:00.287Z,67.22
2022-08-20T18:32:27.519Z,68.68
2022-08-20T18:35:07.047Z,66.71
2022-08-20T18:37:34.017Z,69.09
2022-08-20T18:40:33.546Z,70.49
2022-08-20T18:43:28.017Z,70.69
2022-08-20T18:45:55.041Z,68.59
2022-08-20T18:48:25.016Z,69.99
2022-08-20T18:50:56.734Z,70.43
2022-08-20T18:53:34.161Z,70.54
2022-08-20T18:56:13.587Z,73.05
2022-08-20T18:59:09.605Z,72.73
2022-08-20T19:01:38.730Z,73.26
2022-08-20T19:04:28.134Z,75.98
2022-08-20T19:07:04.382Z,71.82
2022-08-20T19:10:27.897Z,75.53
2022-08-20T19:13:25.959Z,73.61
2022-08-20T19:16:04.029Z,71.67
2022-08-20T19:18:46.942Z,73.77
2022-08-20T19:21:18.881Z,71.96
2022-08-20T19:23:54.222Z,72.08
2022-08-20T19:26:25.397Z,75.80
2022-08-20T19:29:10.676Z,71.14
2022-08-20T19:31:38.080Z,73.90
2022-08-20T19:34:35.778Z,71.72
2022-08-20T19:37:35.364Z,71.41
2022-08-20T19:40:29.000Z,73.90
2022-08-20T19:43:01.343Z,74.42
2022-08-20T19:45:45.458Z,75.08
2022-08-20T19:49:14.096Z,75.39
2022-08-20T19:52:38.218Z,75.50
2022-08-20T19:55:13.352Z,77.01
2022-08-20T19:57:48.750Z,76.57
2022-08-20T20:00:16.353Z,76.43
2022-08-20T20:02:44.017Z,77.51
2022-08-20T20:05:11.559Z,75.14
2022-08-20T20:07:52.311Z,75.83
2022-08-20T20:10:32.750Z,77.24
2022-08-20T20:13:16.676Z,74.00
2022-08-20T20:15:44.266Z,74.87
2022-08-20T20:18:12.986Z,74.89
2022-08-20T20:20:58.108Z,73.54
2022-08-20T20:23:45.597Z,74.69
2022-08-20T20:26:20.181Z,74.43
2022-08-20T20:28:53.461Z,77.06
2022-08-20T20:31:36.377Z,77.80
2022-08-20T20:34:11.547Z,74.29
2022-08-20T20:36:42.047Z,75.51
2022-08-20T20:39:33.080Z,75.17
2022-08-20T20:42:08.749Z,74.09
2022-08-20T20:44:43.245Z,76.21
2022-08-20T20:47:33.754Z,76.40
2022-08-20T20:50:07.664Z,74.84
2022-08-20T20:52:48.392Z,75.22
2022-08-20T20:55:22.902Z,75.49
2022-08-20T20:57:51.653Z,76.38
2022-08-20T21:00:21.909Z,76.79
2022-08-20T21:02:49.661Z,73.40
2022-08-20T21:05:20.292Z,75.24
2022-08-20T21:07:52.103Z,75.17
2022-08-20T21:10:22.959Z,75.57
2022-08-20T21:12:52.894Z,74.73
2022-08-20T21:15:23.726Z,73.67
2022-08-20T21:17:51.738Z,72.67
2022-08-20T21:20:21.013Z,76.92
2022-08-20T21:22:48.051Z,76.14
2022-08-20T21:25:15.239Z,74.46
2022-08-20T21:27:47.275Z,74.27
2022-08-20T21:30:16.591Z,74.61
2022-08-20T21:32:43.580Z,76.18
2022-08-20T21:35:11.620Z,76.30
2022-08-20T21:37:38.840Z,73.67
2022-08-20T21:40:09.447Z,72.10
2022-08-20T21:42:39.740Z,72.83
2022-08-20T21:45:11.429Z,72.11
2022-08-20T21:47:38.552Z,72.08
2022-08-20T21:50:08.102Z,71.97
2022-08-20T21:52:35.947Z,72.76
2022-08-20T21:55:03.314Z,73.49
2022-08-20T21:57:33.699Z,74.47
2022-08-20T22:00:06.106Z,72.18
2022-08-20T22:02:33.104Z,72.05
2022-08-20T22:05:00.056Z,74.55
2022-08-20T22:07:27.169Z,74.66
2022-08-20T22:09:54.147Z,77.20
2022-08-20T22:12:26.741Z,74.11
2022-08-20T22:14:54.936Z,73.75
2022-08-20T22:17:22.136Z,77.00
2022-08-20T22:19:49.570Z,77.19
2022-08-20T22:22:20.862Z,77.67
2022-08-20T22:24:47.999Z,74.78
2022-08-20T22:27:15.234Z,74.98
2022-08-20T22:29:42.650Z,75.44
2022-08-20T22:32:10.640Z,75.30
2022-08-20T22:34:38.208Z,75.59
2022-08-20T22:37:06.199Z,75.36
2022-08-20T22:39:33.409Z,77.50
2022-08-20T22:42:00.631Z,75.90
2022-08-20T22:44:27.690Z,74.62
2022-08-20T22:47:00.109Z,75.57
2022-08-20T22:49:32.173Z,77.32
2022-08-20T22:51:59.886Z,78.49
2022-08-20T22:54:27.598Z,75.24
2022-08-20T22:56:55.115Z,74.55
2022-08-20T22:59:23.482Z,76.42
2022-08-20T23:01:51.904Z,77.17
2022-08-20T23:04:28.750Z,78.32
2022-08-20T23:06:57.781Z,78.67
2022-08-20T23:09:26.591Z,79.84
2022-08-20T23:11:53.863Z,80.20
2022-08-20T23:14:21.855Z,79.08
2022-08-20T23:16:59.817Z,77.05
2022-08-20T23:19:27.185Z,75.16
2022-08-20T23:21:54.548Z,80.95
2022-08-20T23:24:21.810Z,80.87
2022-08-20T23:26:53.035Z,79.78
2022-08-20T23:29:25.462Z,77.84
2022-08-20T23:31:57.306Z,77.10
2022-08-20T23:34:25.993Z,78.54
2022-08-20T23:36:56.557Z,78.90
2022-08-20T23:39:25.147Z,78.55
2022-08-20T23:41:52.663Z,77.29
2022-08-20T23:44:26.101Z,79.09
2022-08-20T23:47:01.933Z,81.13
2022-08-20T23:49:31.375Z,80.26
2022-08-20T23:52:00.581Z,78.93
2022-08-20T23:54:32.930Z,78.03
2022-08-20T23:57:00.263Z,79.22
2022-08-20T23:59:27.353Z,79.20
